Time;durP1;ratioP1;P1;durP2;ratioP2;P2;SDS_P1;SDS_P2;PMS_P1;PMS_P2;Temp;Humidity;BMP_temperature;BMP_pressure;BME280_temperature;BME280_humidity;BME280_pressure;Samples;Min_cycle;Max_cycle;Signal;HPM_P1;HPM_P2
2022/03/18 00:01:12;;;;;;;21.67;5.55;;;3.50;99.90;;;;;;5090445;28;20036;-79
2022/03/18 00:03:37;;;;;;;18.98;5.97;;;3.50;99.90;;;;;;5091386;28;20118;-78
2022/03/18 00:06:03;;;;;;;20.67;5.25;;;3.60;99.90;;;;;;5091099;28;20100;-77
2022/03/18 00:08:29;;;;;;;14.73;5.00;;;3.50;99.90;;;;;;5091046;28;20483;-80
2022/03/18 00:10:55;;;;;;;24.73;5.78;;;3.50;99.90;;;;;;5092316;28;20124;-78
2022/03/18 00:13:21;;;;;;;19.50;5.75;;;3.40;99.90;;;;;;5090962;28;20048;-78
2022/03/18 00:15:47;;;;;;;12.88;5.35;;;3.50;99.90;;;;;;5090041;28;20086;-79
2022/03/18 00:18:12;;;;;;;21.38;5.70;;;3.40;99.90;;;;;;5090975;28;20036;-80
2022/03/18 00:20:38;;;;;;;16.58;5.00;;;3.50;99.90;;;;;;5092415;28;20044;-80
2022/03/18 00:23:04;;;;;;;21.13;5.72;;;3.40;99.90;;;;;;5073916;28;20048;-80
2022/03/18 00:25:29;;;;;;;25.98;6.00;;;3.40;99.90;;;;;;5090484;28;20040;-80
2022/03/18 00:27:55;;;;;;;23.00;5.43;;;3.40;99.90;;;;;;5090676;28;20032;-78
2022/03/18 00:30:21;;;;;;;17.08;5.88;;;3.40;99.90;;;;;;5089538;28;20491;-79
2022/03/18 00:32:48;;;;;;;20.08;5.85;;;3.50;99.90;;;;;;5073503;28;20048;-78
2022/03/18 00:35:14;;;;;;;17.33;5.85;;;3.40;99.90;;;;;;5092246;28;20052;-77
2022/03/18 00:37:40;;;;;;;17.50;5.63;;;3.50;99.90;;;;;;5091059;28;20052;-79
2022/03/18 00:40:07;;;;;;;24.05;6.47;;;3.40;99.90;;;;;;5104231;28;20035;-78
2022/03/18 00:42:33;;;;;;;21.35;5.90;;;3.40;99.90;;;;;;5111197;28;20035;-77
2022/03/18 00:44:59;;;;;;;24.55;5.97;;;3.40;99.90;;;;;;5110805;28;20401;-79
2022/03/18 00:52:53;;;;;;;16.55;5.15;;;3.40;99.90;;;;;;5110922;28;20044;-78
2022/03/18 00:55:19;;;;;;;20.63;5.70;;;3.30;99.90;;;;;;5093659;28;20505;-77
2022/03/18 00:57:45;;;;;;;19.40;6.20;;;3.30;99.90;;;;;;5097656;28;20112;-77
2022/03/18 01:00:11;;;;;;;17.95;6.05;;;3.30;99.90;;;;;;5089501;28;20534;-77
2022/03/18 01:02:37;;;;;;;22.23;6.03;;;3.30;99.90;;;;;;5090495;28;20161;-79
2022/03/18 01:05:03;;;;;;;26.73;6.68;;;3.30;99.90;;;;;;5090257;28;20123;-78
2022/03/18 01:07:29;;;;;;;20.27;6.05;;;3.20;99.90;;;;;;5072212;28;20070;-78
2022/03/18 01:09:55;;;;;;;20.15;6.35;;;3.20;99.90;;;;;;5056936;28;20112;-76
2022/03/18 01:12:21;;;;;;;17.23;6.10;;;3.10;99.90;;;;;;5090073;28;20455;-79
2022/03/18 01:14:46;;;;;;;17.98;6.13;;;3.10;99.90;;;;;;5090244;28;20141;-78
2022/03/18 01:17:12;;;;;;;15.55;5.95;;;3.10;99.90;;;;;;5089355;28;20094;-78
2022/03/18 01:19:38;;;;;;;18.92;6.32;;;3.10;99.90;;;;;;5072912;28;20042;-78
2022/03/18 01:22:04;;;;;;;20.27;5.72;;;3.00;99.90;;;;;;5089460;28;20123;-79
2022/03/18 01:24:30;;;;;;;18.90;6.55;;;3.00;99.90;;;;;;5089189;28;20052;-79
2022/03/18 01:26:55;;;;;;;15.07;5.97;;;2.90;99.90;;;;;;5089827;28;20042;-78
2022/03/18 01:29:21;;;;;;;19.92;7.03;;;2.90;99.90;;;;;;5072983;28;20578;-79
2022/03/18 01:31:48;;;;;;;20.88;6.10;;;3.00;99.90;;;;;;5088910;28;20119;-77
2022/03/18 01:34:13;;;;;;;26.80;7.93;;;3.00;99.90;;;;;;5072702;28;20075;-78
2022/03/18 01:36:39;;;;;;;20.80;7.20;;;3.00;99.90;;;;;;5089460;28;20075;-79
2022/03/18 01:39:05;;;;;;;17.92;7.28;;;3.00;99.90;;;;;;5076054;28;20048;-78
2022/03/18 01:41:32;;;;;;;18.95;7.60;;;3.00;99.90;;;;;;5092990;28;20082;-79
2022/03/18 01:43:57;;;;;;;20.20;7.95;;;3.10;99.90;;;;;;5109834;28;20047;-79
2022/03/18 01:46:24;;;;;;;20.35;7.32;;;3.20;99.90;;;;;;5109525;28;20384;-78
2022/03/18 01:48:49;;;;;;;19.10;6.90;;;3.10;99.90;;;;;;5092769;28;20044;-78
2022/03/18 01:51:16;;;;;;;27.13;7.57;;;3.10;99.90;;;;;;5093131;28;20482;-79
2022/03/18 01:53:43;;;;;;;17.08;7.25;;;3.20;99.90;;;;;;5109913;28;20391;-78
2022/03/18 01:56:09;;;;;;;16.63;7.00;;;3.10;99.90;;;;;;5076279;28;20135;-78
2022/03/18 01:58:35;;;;;;;15.63;6.63;;;3.00;99.90;;;;;;5072630;28;20032;-78
2022/03/18 02:01:02;;;;;;;21.00;7.30;;;3.10;99.90;;;;;;5089376;28;20505;-78
2022/03/18 02:03:28;;;;;;;21.85;7.50;;;3.20;99.90;;;;;;5072643;28;20043;-80
2022/03/18 02:05:54;;;;;;;19.63;7.75;;;3.00;99.90;;;;;;5089455;28;20085;-78
2022/03/18 02:08:21;;;;;;;20.10;7.88;;;3.00;99.90;;;;;;5090161;28;20109;-79
2022/03/18 02:10:47;;;;;;;24.25;8.68;;;3.00;99.90;;;;;;5089439;28;20537;-78
2022/03/18 02:13:13;;;;;;;20.88;8.60;;;3.10;99.90;;;;;;5072240;28;20052;-79
2022/03/18 02:15:39;;;;;;;21.98;8.77;;;3.60;99.90;;;;;;5088929;28;20485;-79
2022/03/18 02:18:05;;;;;;;25.02;8.63;;;3.20;99.90;;;;;;5089009;28;20127;-77
2022/03/18 02:20:32;;;;;;;25.33;8.38;;;3.20;99.90;;;;;;5093510;28;20426;-79
2022/03/18 02:22:58;;;;;;;18.52;8.05;;;3.20;99.90;;;;;;5093239;28;20094;-79
2022/03/18 02:25:24;;;;;;;29.00;9.43;;;3.20;99.90;;;;;;5093328;28;20083;-79
2022/03/18 02:28:01;;;;;;;27.08;9.07;;;3.30;99.90;;;;;;5093106;28;20123;-78
2022/03/18 02:30:32;;;;;;;19.83;8.25;;;3.20;99.90;;;;;;5092861;28;20047;-78
2022/03/18 02:32:59;;;;;;;23.38;8.57;;;3.20;99.90;;;;;;5075859;28;20036;-78
2022/03/18 02:35:26;;;;;;;22.08;8.38;;;3.20;99.90;;;;;;5093111;28;20112;-78
2022/03/18 02:37:52;;;;;;;22.77;7.88;;;3.10;99.90;;;;;;5093156;28;20460;-77
2022/03/18 02:40:17;;;;;;;23.65;8.80;;;3.10;99.90;;;;;;5089781;28;20131;-77
2022/03/18 02:42:44;;;;;;;21.08;8.35;;;3.00;99.90;;;;;;5114964;28;20085;-77
2022/03/18 02:45:10;;;;;;;24.83;8.50;;;3.00;99.90;;;;;;5112946;28;20086;-77
2022/03/18 02:47:36;;;;;;;21.20;8.20;;;3.00;99.90;;;;;;5112738;28;20122;-77
2022/03/18 02:50:02;;;;;;;20.23;8.18;;;3.00;99.90;;;;;;5096001;28;20047;-78
2022/03/18 02:52:28;;;;;;;21.33;8.38;;;3.00;99.90;;;;;;5112668;28;20118;-78
2022/03/18 02:54:53;;;;;;;18.00;7.95;;;3.00;99.90;;;;;;5113469;28;20046;-76
2022/03/18 02:57:19;;;;;;;21.30;8.50;;;3.00;99.90;;;;;;5103174;28;20036;-78
2022/03/18 02:59:45;;;;;;;23.63;8.63;;;2.90;99.90;;;;;;5094189;28;20427;-79
2022/03/18 03:02:12;;;;;;;22.88;8.52;;;2.90;99.90;;;;;;5091721;28;20051;-79
2022/03/18 03:07:58;;;;;;;19.73;8.80;;;2.90;99.90;;;;;;5075658;28;20115;-77
2022/03/18 03:10:09;;;;;;;23.27;8.67;;;2.90;99.90;;;;;;5092397;28;20059;-78
2022/03/18 03:12:34;;;;;;;24.65;9.05;;;2.90;99.90;;;;;;5092680;28;20633;-77
2022/03/18 03:15:00;;;;;;;21.40;8.00;;;2.90;99.90;;;;;;5092543;28;20044;-79
2022/03/18 03:17:26;;;;;;;19.63;8.63;;;2.90;99.90;;;;;;5074454;28;20094;-78
2022/03/18 03:19:53;;;;;;;20.58;8.98;;;2.80;99.90;;;;;;5075440;28;20044;-80
2022/03/18 03:22:18;;;;;;;22.20;8.75;;;2.90;99.90;;;;;;5075523;28;20447;-78
2022/03/18 03:24:44;;;;;;;19.27;8.35;;;2.90;99.90;;;;;;5092201;28;20044;-79
2022/03/18 03:27:09;;;;;;;27.20;9.05;;;2.90;99.90;;;;;;5075154;28;20107;-79
2022/03/18 03:29:35;;;;;;;19.55;9.15;;;3.00;99.90;;;;;;5075024;28;20036;-79
2022/03/18 03:32:01;;;;;;;19.67;8.63;;;2.90;99.90;;;;;;5092812;28;20032;-78
2022/03/18 03:34:26;;;;;;;23.83;9.38;;;2.90;99.90;;;;;;5075240;28;20467;-77
2022/03/18 03:36:52;;;;;;;23.25;9.15;;;2.90;99.90;;;;;;5093274;28;20048;-77
2022/03/18 03:39:17;;;;;;;19.17;8.65;;;3.00;99.90;;;;;;5097274;28;20118;-78
2022/03/18 03:41:43;;;;;;;26.77;9.63;;;2.90;99.90;;;;;;5112526;28;20039;-77
2022/03/18 03:44:09;;;;;;;22.50;8.90;;;3.00;99.90;;;;;;5095158;28;20083;-79
2022/03/18 03:46:35;;;;;;;15.38;8.25;;;3.10;99.90;;;;;;5093867;28;20468;-80
2022/03/18 03:49:01;;;;;;;20.55;9.00;;;3.10;99.90;;;;;;5112103;28;20074;-78
2022/03/18 03:51:26;;;;;;;16.52;8.90;;;3.10;99.90;;;;;;5112034;28;20046;-77
2022/03/18 03:53:52;;;;;;;20.60;9.20;;;3.10;99.90;;;;;;5095179;28;20410;-76
2022/03/18 03:56:17;;;;;;;22.48;9.35;;;3.10;99.90;;;;;;5110686;28;20035;-77
2022/03/18 03:58:43;;;;;;;28.23;9.82;;;3.20;99.90;;;;;;5091864;28;20058;-77
2022/03/18 04:01:09;;;;;;;21.52;9.07;;;3.30;99.90;;;;;;5091225;28;20036;-79
2022/03/18 04:03:34;;;;;;;28.90;9.68;;;3.20;99.90;;;;;;5091151;28;20036;-77
2022/03/18 04:06:01;;;;;;;21.42;9.48;;;3.30;99.90;;;;;;5091546;28;20047;-78
2022/03/18 04:08:27;;;;;;;25.48;10.65;;;3.60;99.90;;;;;;5074813;28;20063;-78
2022/03/18 04:10:54;;;;;;;22.85;9.20;;;3.30;99.90;;;;;;5091994;28;20483;-79
2022/03/18 04:13:20;;;;;;;22.23;9.30;;;3.40;99.90;;;;;;5091342;28;20036;-79
2022/03/18 04:15:48;;;;;;;19.15;9.90;;;3.50;99.90;;;;;;5090952;28;20123;-77
2022/03/18 04:18:14;;;;;;;25.33;9.88;;;3.60;99.90;;;;;;5090730;28;20055;-80
2022/03/18 04:20:39;;;;;;;27.83;9.52;;;3.60;99.90;;;;;;5091042;28;20047;-77
2022/03/18 04:23:05;;;;;;;20.85;9.30;;;3.70;99.90;;;;;;5091046;28;20079;-79
2022/03/18 04:25:31;;;;;;;18.60;10.15;;;3.60;99.90;;;;;;5091256;28;20035;-79
2022/03/18 04:27:57;;;;;;;23.65;9.93;;;3.70;99.90;;;;;;5074196;28;20040;-78
2022/03/18 04:30:23;;;;;;;23.20;9.77;;;3.70;99.90;;;;;;5073382;28;20044;-77
2022/03/18 04:32:49;;;;;;;19.98;9.57;;;3.80;99.90;;;;;;5090591;28;20464;-78
2022/03/18 04:35:14;;;;;;;21.02;9.60;;;3.90;99.90;;;;;;5090745;28;20157;-77
2022/03/18 04:37:42;;;;;;;29.40;9.90;;;3.90;99.90;;;;;;5092482;28;20415;-77
2022/03/18 04:40:12;;;;;;;22.77;10.15;;;3.90;99.90;;;;;;5103337;28;20367;-78
2022/03/18 04:42:39;;;;;;;20.40;9.13;;;3.90;99.90;;;;;;5093807;28;20058;-77
2022/03/18 04:45:05;;;;;;;21.73;10.05;;;3.90;99.90;;;;;;5111221;28;20039;-77
2022/03/18 04:47:33;;;;;;;20.30;9.55;;;3.90;99.90;;;;;;5110278;28;20054;-78
2022/03/18 04:50:00;;;;;;;18.52;9.57;;;4.00;99.90;;;;;;5093942;28;20043;-78
2022/03/18 04:52:26;;;;;;;24.92;10.05;;;4.00;99.90;;;;;;5112280;27;20091;-78
2022/03/18 04:54:52;;;;;;;18.77;9.57;;;4.00;99.90;;;;;;5111065;28;20043;-78
2022/03/18 04:57:20;;;;;;;22.70;9.52;;;4.00;99.90;;;;;;5089817;28;20040;-78
2022/03/18 04:59:54;;;;;;;20.42;9.95;;;4.00;99.90;;;;;;5090534;28;20054;-79
2022/03/18 05:02:24;;;;;;;19.55;9.50;;;4.00;99.90;;;;;;5089394;28;20052;-80
2022/03/18 05:04:50;;;;;;;18.35;9.63;;;4.00;99.90;;;;;;5090525;28;20047;-79
2022/03/18 05:07:17;;;;;;;22.23;9.32;;;3.90;99.90;;;;;;5089986;28;20124;-79
2022/03/18 05:09:45;;;;;;;20.15;9.02;;;3.80;99.90;;;;;;5090255;28;20143;-78
2022/03/18 05:12:13;;;;;;;23.27;10.13;;;3.60;99.90;;;;;;5090194;28;20144;-79
2022/03/18 05:14:40;;;;;;;19.38;9.85;;;3.70;99.90;;;;;;5090344;28;20040;-78
2022/03/18 05:17:07;;;;;;;27.15;9.32;;;3.70;99.90;;;;;;5090999;28;20040;-79
2022/03/18 05:19:34;;;;;;;19.80;9.40;;;3.70;99.90;;;;;;5089917;28;20376;-79
2022/03/18 05:22:00;;;;;;;15.52;8.88;;;3.50;99.90;;;;;;5072212;28;20073;-79
2022/03/18 05:24:26;;;;;;;19.65;9.10;;;3.50;99.90;;;;;;5073249;28;20047;-77
2022/03/18 05:26:56;;;;;;;20.42;9.43;;;3.50;99.90;;;;;;5090028;28;20028;-79
2022/03/18 05:29:22;;;;;;;24.42;9.50;;;3.40;99.90;;;;;;5089773;28;20058;-79
2022/03/18 05:31:48;;;;;;;19.23;9.63;;;3.40;99.90;;;;;;5088866;28;20360;-78
2022/03/18 05:34:14;;;;;;;19.08;9.55;;;3.40;99.90;;;;;;5089419;28;20028;-79
2022/03/18 05:36:41;;;;;;;20.90;8.85;;;3.30;99.90;;;;;;5073296;28;20485;-78
2022/03/18 05:39:06;;;;;;;16.20;9.35;;;3.30;99.90;;;;;;5093475;28;20417;-76
2022/03/18 05:41:34;;;;;;;23.23;9.27;;;3.30;99.90;;;;;;5110118;28;20032;-77
2022/03/18 05:43:59;;;;;;;17.05;9.63;;;3.20;99.90;;;;;;5093497;28;20108;-78
2022/03/18 05:46:25;;;;;;;21.88;9.15;;;3.10;99.90;;;;;;5109835;28;20458;-78
2022/03/18 05:48:51;;;;;;;17.55;9.38;;;3.20;99.90;;;;;;5109588;28;20043;-80
2022/03/18 05:51:17;;;;;;;18.77;9.27;;;3.10;99.90;;;;;;5110631;28;20543;-80
2022/03/18 05:53:43;;;;;;;22.13;9.63;;;3.10;99.90;;;;;;5110068;28;20031;-78
2022/03/18 05:58:55;;;;;;;16.40;9.30;;;3.00;99.90;;;;;;5089573;28;20040;-79
2022/03/18 06:01:20;;;;;;;18.83;8.88;;;3.00;99.90;;;;;;5089286;28;20040;-76
2022/03/18 06:03:48;;;;;;;26.10;9.65;;;2.90;99.90;;;;;;5090749;28;20047;-77
2022/03/18 06:06:14;;;;;;;19.50;9.07;;;2.90;99.90;;;;;;5089817;28;20104;-78
2022/03/18 06:14:08;;;;;;;20.60;9.65;;;2.80;99.90;;;;;;5090963;28;20044;-79
2022/03/18 06:16:36;;;;;;;21.10;10.38;;;2.80;99.90;;;;;;5088896;28;20055;-78
2022/03/18 06:19:01;;;;;;;18.45;9.70;;;2.80;99.90;;;;;;5089615;28;20219;-80
2022/03/18 06:21:28;;;;;;;23.73;9.32;;;2.80;99.90;;;;;;5072775;28;20207;-79
2022/03/18 06:23:54;;;;;;;20.48;9.88;;;2.80;99.90;;;;;;5091010;28;20092;-79
2022/03/18 06:26:20;;;;;;;15.30;9.38;;;2.80;99.90;;;;;;5072282;28;20052;-77
2022/03/18 06:28:45;;;;;;;15.05;9.75;;;3.30;99.90;;;;;;5090583;28;20032;-77
2022/03/18 06:31:11;;;;;;;19.45;10.75;;;2.90;99.90;;;;;;5089465;28;20044;-78
2022/03/18 06:33:43;;;;;;;22.67;10.70;;;2.90;99.90;;;;;;5089270;28;20372;-78
2022/03/18 06:36:09;;;;;;;23.50;10.68;;;3.00;99.90;;;;;;5089444;28;20131;-78
2022/03/18 06:38:37;;;;;;;23.55;11.38;;;3.00;99.90;;;;;;5089485;28;20071;-77
2022/03/18 06:41:02;;;;;;;20.33;11.55;;;3.00;99.90;;;;;;5109654;28;20399;-78
2022/03/18 06:43:28;;;;;;;20.98;11.20;;;3.20;99.90;;;;;;5092726;28;20032;-80
2022/03/18 06:45:54;;;;;;;23.27;12.25;;;3.20;99.90;;;;;;5109236;28;20039;-80
2022/03/18 06:48:19;;;;;;;18.95;10.98;;;3.30;99.90;;;;;;5109169;28;20036;-77
2022/03/18 06:50:45;;;;;;;19.48;11.25;;;3.30;99.90;;;;;;5110148;28;20119;-79
2022/03/18 06:53:11;;;;;;;23.50;11.60;;;3.40;99.90;;;;;;5109210;28;20094;-78
2022/03/18 06:55:37;;;;;;;24.38;11.95;;;3.40;99.90;;;;;;5111253;28;20448;-78
2022/03/18 06:58:02;;;;;;;23.92;11.38;;;3.50;99.90;;;;;;5088479;28;20439;-78
2022/03/18 07:00:28;;;;;;;21.17;11.82;;;3.50;99.90;;;;;;5088948;28;20059;-80
2022/03/18 07:02:54;;;;;;;27.27;12.30;;;3.50;99.90;;;;;;5072307;28;20552;-77
2022/03/18 07:05:20;;;;;;;28.55;12.50;;;3.60;99.90;;;;;;5074542;28;20481;-80
2022/03/18 07:07:45;;;;;;;24.83;11.82;;;3.70;99.90;;;;;;5094214;28;20515;-77
2022/03/18 07:10:12;;;;;;;19.90;12.40;;;3.90;99.90;;;;;;5093043;28;20356;-76
2022/03/18 07:12:38;;;;;;;27.55;13.02;;;3.80;99.90;;;;;;5093047;28;20036;-78
2022/03/18 07:15:05;;;;;;;26.77;12.63;;;3.90;99.90;;;;;;5092619;28;20109;-79
2022/03/18 07:20:15;;;;;;;24.67;13.93;;;4.10;99.90;;;;;;5092847;28;20226;-78
2022/03/18 07:22:41;;;;;;;28.42;12.82;;;4.50;99.90;;;;;;5075899;28;20562;-79
2022/03/18 07:25:07;;;;;;;28.00;13.80;;;4.20;99.90;;;;;;5092632;28;20054;-80
2022/03/18 07:27:33;;;;;;;23.85;13.20;;;4.30;99.90;;;;;;5093926;28;20429;-79
2022/03/18 07:29:59;;;;;;;27.45;12.85;;;4.40;99.90;;;;;;5093944;28;20069;-80
2022/03/18 07:32:24;;;;;;;24.70;13.82;;;4.60;99.90;;;;;;5074612;28;20058;-80
2022/03/18 07:34:50;;;;;;;27.05;13.85;;;4.60;99.90;;;;;;5092515;28;20051;-79
2022/03/18 07:37:16;;;;;;;23.73;13.35;;;4.60;99.90;;;;;;5075580;28;20181;-80
2022/03/18 07:39:42;;;;;;;23.35;13.48;;;4.70;99.90;;;;;;5084033;28;20043;-79
2022/03/18 07:42:07;;;;;;;28.42;14.43;;;4.70;99.90;;;;;;5114130;28;20524;-79
2022/03/18 07:44:36;;;;;;;32.80;14.50;;;4.90;99.90;;;;;;5095087;28;20043;-77
2022/03/18 07:47:05;;;;;;;29.10;15.18;;;5.00;99.90;;;;;;5094793;28;20176;-80
2022/03/18 07:49:31;;;;;;;26.90;15.18;;;5.20;99.90;;;;;;5112777;28;20036;-79
2022/03/18 07:51:56;;;;;;;33.42;16.52;;;5.30;99.90;;;;;;5112297;28;20038;-77
2022/03/18 07:54:22;;;;;;;29.00;16.55;;;5.30;99.90;;;;;;5114334;28;20039;-78
2022/03/18 07:56:50;;;;;;;30.33;15.57;;;5.50;99.90;;;;;;5091915;28;20093;-77
2022/03/18 07:59:16;;;;;;;39.03;16.73;;;5.60;99.90;;;;;;5092064;28;20054;-77
2022/03/18 08:01:41;;;;;;;37.05;16.05;;;5.90;99.90;;;;;;5091217;28;20398;-79
2022/03/18 08:04:09;;;;;;;33.53;15.90;;;6.00;99.90;;;;;;5091977;28;20141;-79
2022/03/18 08:06:34;;;;;;;41.92;16.90;;;6.20;99.90;;;;;;5091963;28;20127;-76
2022/03/18 08:09:00;;;;;;;32.95;15.60;;;6.20;99.90;;;;;;5091957;28;20087;-76
2022/03/18 08:11:26;;;;;;;38.67;15.93;;;6.40;99.90;;;;;;5091936;28;20040;-76
2022/03/18 08:13:52;;;;;;;33.55;16.38;;;6.50;99.90;;;;;;5091784;28;20131;-77
2022/03/18 08:16:18;;;;;;;38.08;15.00;;;6.70;99.90;;;;;;5073042;28;20082;-79
2022/03/18 08:18:43;;;;;;;34.80;14.48;;;6.80;99.90;;;;;;5091345;28;20147;-79
2022/03/18 08:21:10;;;;;;;32.20;14.25;;;6.90;99.90;;;;;;5074756;28;20040;-79
2022/03/18 08:23:36;;;;;;;32.15;14.50;;;7.00;99.90;;;;;;5093246;28;20071;-76
2022/03/18 08:26:01;;;;;;;40.08;14.30;;;7.10;99.90;;;;;;5075214;28;20140;-77
2022/03/18 08:28:27;;;;;;;31.83;15.38;;;7.10;99.90;;;;;;5074486;28;20505;-78
2022/03/18 08:30:53;;;;;;;38.13;15.45;;;7.20;99.90;;;;;;5091293;28;20043;-78
2022/03/18 08:33:19;;;;;;;40.53;15.73;;;7.30;99.90;;;;;;5091093;28;20036;-78
2022/03/18 08:35:45;;;;;;;37.10;15.10;;;7.40;99.90;;;;;;5091416;28;20070;-78
2022/03/18 08:38:11;;;;;;;34.35;16.10;;;7.50;99.90;;;;;;5091504;28;20071;-75
2022/03/18 08:40:38;;;;;;;37.60;15.23;;;7.60;99.90;;;;;;5090991;28;20046;-79
2022/03/18 08:43:06;;;;;;;42.75;16.25;;;7.60;99.90;;;;;;5111959;28;20518;-77
2022/03/18 08:45:33;;;;;;;33.97;15.40;;;7.70;99.90;;;;;;5111400;28;20047;-77
2022/03/18 08:47:59;;;;;;;33.92;14.40;;;7.80;99.90;;;;;;5111073;28;20032;-80
2022/03/18 08:50:25;;;;;;;36.40;13.88;;;7.90;99.90;;;;;;5111676;28;20040;-78
2022/03/18 08:52:53;;;;;;;40.55;13.75;;;8.10;99.90;;;;;;5111452;28;20036;-78
2022/03/18 08:55:19;;;;;;;32.70;12.55;;;8.20;99.90;;;;;;5113010;28;20042;-77
2022/03/18 08:57:45;;;;;;;38.63;14.40;;;8.30;99.90;;;;;;5107645;28;20127;-80
2022/03/18 09:00:14;;;;;;;35.78;13.60;;;8.30;99.90;;;;;;5073677;28;20140;-77
2022/03/18 09:02:40;;;;;;;34.95;13.88;;;8.40;99.90;;;;;;5090538;28;20151;-78
2022/03/18 09:05:07;;;;;;;29.38;12.32;;;8.50;99.90;;;;;;5090883;28;20032;-76
2022/03/18 09:07:34;;;;;;;32.40;13.02;;;8.50;99.90;;;;;;5090389;28;20380;-79
2022/03/18 09:10:00;;;;;;;34.67;12.75;;;8.60;99.90;;;;;;5090419;28;20044;-79
2022/03/18 09:12:26;;;;;;;34.33;11.40;;;8.70;99.90;;;;;;5090536;28;20062;-79
2022/03/18 09:14:52;;;;;;;31.00;12.20;;;8.80;99.90;;;;;;5090438;28;20135;-77
2022/03/18 09:17:18;;;;;;;33.60;12.07;;;9.00;99.90;;;;;;5072277;28;20139;-80
2022/03/18 09:19:44;;;;;;;34.55;11.95;;;9.00;99.90;;;;;;5073649;28;20455;-77
2022/03/18 09:22:10;;;;;;;35.80;12.10;;;9.10;99.90;;;;;;5090313;28;20131;-78
2022/03/18 09:24:37;;;;;;;30.50;11.50;;;9.30;99.90;;;;;;5073982;28;20113;-76
2022/03/18 09:27:04;;;;;;;28.35;10.63;;;9.20;99.90;;;;;;5056600;28;20097;-79
2022/03/18 09:29:32;;;;;;;35.95;11.07;;;9.30;99.90;;;;;;5090288;28;20123;-78
2022/03/18 09:31:57;;;;;;;28.33;11.10;;;9.50;99.90;;;;;;5089709;28;20191;-78
2022/03/18 09:34:26;;;;;;;36.05;11.82;;;9.50;99.90;;;;;;5073048;28;20506;-77
2022/03/18 09:36:55;;;;;;;31.60;10.80;;;9.50;99.90;;;;;;5091357;28;20058;-80
2022/03/18 09:39:22;;;;;;;30.90;11.07;;;9.60;99.90;;;;;;5079118;28;20058;-80
2022/03/18 09:41:48;;;;;;;33.45;11.30;;;9.70;99.90;;;;;;5110442;28;20039;-79
2022/03/18 09:44:14;;;;;;;27.05;10.18;;;9.80;99.90;;;;;;5111775;28;20054;-76
2022/03/18 09:46:41;;;;;;;37.08;11.15;;;9.90;99.90;;;;;;5109300;28;20049;-79
2022/03/18 09:49:11;;;;;;;36.33;10.40;;;10.00;99.90;;;;;;5093632;28;20043;-80
2022/03/18 09:51:40;;;;;;;31.50;9.57;;;10.00;99.90;;;;;;5110188;28;20131;-79
2022/03/18 09:54:06;;;;;;;33.90;12.07;;;10.10;99.90;;;;;;5110757;28;20066;-81
2022/03/18 09:56:40;;;;;;;27.85;9.68;;;10.20;99.90;;;;;;5090161;28;20459;-78
2022/03/18 09:59:05;;;;;;;27.40;10.18;;;10.30;99.90;;;;;;5090287;28;20429;-81
2022/03/18 10:01:31;;;;;;;30.70;10.25;;;10.30;99.90;;;;;;5089598;28;20123;-78
2022/03/18 10:04:03;;;;;;;28.90;10.20;;;10.30;99.90;;;;;;5089642;28;20368;-79
2022/03/18 10:06:29;;;;;;;31.75;11.02;;;10.40;99.90;;;;;;5089845;28;20047;-78
2022/03/18 10:08:55;;;;;;;30.15;10.98;;;10.40;99.90;;;;;;5072685;28;20059;-76
2022/03/18 10:11:28;;;;;;;28.20;10.10;;;10.50;99.90;;;;;;5091052;28;20040;-77
2022/03/18 10:14:02;;;;;;;29.88;10.10;;;10.50;99.90;;;;;;5089916;28;20036;-77
2022/03/18 10:16:39;;;;;;;25.45;9.88;;;10.80;99.90;;;;;;5072629;28;20177;-80
2022/03/18 10:19:13;;;;;;;25.65;9.07;;;10.90;99.90;;;;;;5089888;28;20035;-77
2022/03/18 10:22:11;;;;;;;31.47;9.80;;;11.20;99.90;;;;;;5089761;28;20509;-76
2022/03/18 10:24:38;;;;;;;30.42;9.38;;;11.20;99.90;;;;;;5028588;28;20076;-80
2022/03/18 10:27:21;;;;;;;31.30;8.63;;;11.30;99.90;;;;;;5011769;28;20057;-77
2022/03/18 10:29:56;;;;;;;30.27;8.88;;;11.40;99.90;;;;;;5024285;28;20045;-78
2022/03/18 10:32:24;;;;;;;23.63;7.90;;;11.70;99.90;;;;;;5030823;28;20456;-77
2022/03/18 10:37:41;;;;;;;24.30;8.25;;;12.00;99.90;;;;;;5031724;28;20049;-77
2022/03/18 10:40:08;;;;;;;28.42;8.15;;;12.10;99.90;;;;;;5033240;28;20057;-80
2022/03/18 10:42:34;;;;;;;23.23;7.20;;;12.10;99.90;;;;;;5035792;28;20881;-77
2022/03/18 10:45:01;;;;;;;27.38;7.00;;;12.20;99.90;;;;;;5035468;28;20048;-78
2022/03/18 10:47:42;;;;;;;36.30;8.35;;;12.60;99.90;;;;;;5034455;28;20048;-79
2022/03/18 10:50:31;;;;;;;27.88;7.75;;;12.70;99.90;;;;;;5035212;28;20044;-79
2022/03/18 10:52:59;;;;;;;30.58;7.68;;;12.70;99.90;;;;;;5035230;28;20063;-76
2022/03/18 10:55:34;;;;;;;19.98;6.53;;;12.80;99.90;;;;;;5035222;28;20045;-79
2022/03/18 10:58:11;;;;;;;;;;;12.90;99.90;;;;;;5035677;28;20053;-77
2022/03/18 11:00:43;;;;;;;21.02;6.30;;;13.20;99.90;;;;;;5086591;28;20271;-77
2022/03/18 11:03:09;;;;;;;19.73;5.85;;;13.50;99.90;;;;;;5110637;28;20040;-85
2022/03/18 11:05:41;;;;;;;23.65;6.07;;;13.60;99.90;;;;;;5113727;28;20051;-77
2022/03/18 11:08:11;;;;;;;19.58;5.85;;;13.60;99.90;;;;;;5113773;27;20043;-81
2022/03/18 11:13:29;;;;;;;23.48;6.50;;;13.70;99.90;;;;;;5108517;27;20031;-78
2022/03/18 11:15:56;;;;;;;26.23;6.47;;;13.60;99.90;;;;;;5128971;27;20134;-82
2022/03/18 11:18:25;;;;;;;27.25;6.25;;;13.80;99.90;;;;;;5095519;27;20098;-75
2022/03/18 11:20:52;;;;;;;22.67;6.10;;;13.90;99.90;;;;;;5119120;27;20071;-79
2022/03/18 11:23:19;;;;;;;24.50;5.90;;;13.80;99.90;;;;;;5121722;27;20039;-77
2022/03/18 11:25:48;;;;;;;23.80;6.63;;;14.00;99.90;;;;;;5109219;27;20114;-82
2022/03/18 11:28:16;;;;;;;24.35;5.95;;;14.10;99.90;;;;;;5110575;27;20074;-78
2022/03/18 11:30:42;;;;;;;21.98;6.00;;;14.20;99.90;;;;;;5115631;27;20044;-76
2022/03/18 11:33:11;;;;;;;20.95;5.85;;;14.20;99.90;;;;;;5112608;27;20051;-76
2022/03/18 11:35:49;;;;;;;23.40;5.78;;;14.20;99.90;;;;;;5093790;28;20040;-78
2022/03/18 11:38:23;;;;;;;18.13;4.90;;;14.40;99.90;;;;;;5112512;27;20039;-78
2022/03/18 11:40:57;;;;;;;;;;;14.50;99.90;;;;;;5094638;27;20047;-77
2022/03/18 11:43:39;;;;;;;24.17;6.40;;;14.40;99.90;;;;;;5104058;27;20334;-79
2022/03/18 11:46:16;;;;;;;18.02;5.43;;;14.50;99.90;;;;;;5118470;27;20039;-81
2022/03/18 11:48:53;;;;;;;21.60;5.45;;;14.50;99.90;;;;;;5121310;27;20458;-81
2022/03/18 11:51:25;;;;;;;20.55;5.55;;;14.50;99.90;;;;;;5101535;28;20032;-79
2022/03/18 11:53:53;;;;;;;19.92;5.82;;;14.60;99.90;;;;;;5100151;28;20032;-79
2022/03/18 11:56:23;;;;;;;23.45;5.32;;;14.50;99.90;;;;;;5104178;28;20028;-76
2022/03/18 11:58:49;;;;;;;23.42;5.45;;;15.10;99.90;;;;;;5099993;28;20038;-78
2022/03/18 12:01:37;;;;;;;23.30;5.20;;;15.30;99.90;;;;;;5102329;27;20031;-79
2022/03/18 12:04:07;;;;;;;14.13;4.90;;;15.30;99.90;;;;;;5108384;28;20098;-80
2022/03/18 12:06:32;;;;;;;26.85;5.40;;;15.20;99.90;;;;;;5108983;27;20040;-77
2022/03/18 12:09:02;;;;;;;20.60;4.97;;;15.50;99.90;;;;;;5093313;28;20066;-73
2022/03/18 12:11:35;;;;;;;13.25;4.47;;;15.60;99.90;;;;;;5114520;27;20130;-76
2022/03/18 12:14:01;;;;;;;20.80;5.03;;;15.40;99.90;;;;;;5110167;28;20031;-74
2022/03/18 12:16:27;;;;;;;21.05;4.85;;;15.60;99.90;;;;;;5110937;28;20074;-73
2022/03/18 12:19:01;;;;;;;19.15;5.53;;;15.50;99.90;;;;;;5107084;28;20502;-74
2022/03/18 12:21:39;;;;;;;22.92;4.88;;;15.70;99.90;;;;;;5106348;28;20046;-75
2022/03/18 12:24:08;;;;;;;20.08;5.40;;;15.70;99.90;;;;;;5108588;27;20031;-74
2022/03/18 12:26:35;;;;;;;16.73;5.15;;;16.00;99.90;;;;;;5107993;28;20066;-75
2022/03/18 12:29:01;;;;;;;19.30;4.80;;;16.00;99.90;;;;;;5107167;28;20150;-73
2022/03/18 12:31:26;;;;;;;17.00;4.60;;;16.20;99.90;;;;;;5105686;28;20455;-74
2022/03/18 12:34:00;;;;;;;18.50;4.25;;;16.20;99.90;;;;;;5107444;27;20049;-74
2022/03/18 12:36:29;;;;;;;25.48;5.50;;;15.60;99.90;;;;;;5106447;28;20039;-75
2022/03/18 12:39:05;;;;;;;19.33;5.40;;;15.00;99.90;;;;;;5090934;28;20105;-76
2022/03/18 12:41:31;;;;;;;19.67;4.82;;;15.00;99.90;;;;;;5105231;28;20509;-75
2022/03/18 12:43:57;;;;;;;23.00;5.68;;;15.50;99.90;;;;;;5090009;27;20143;-79
2022/03/18 12:46:22;;;;;;;22.50;5.38;;;15.40;99.90;;;;;;5110310;27;20081;-81
2022/03/18 12:48:48;;;;;;;22.63;5.35;;;15.00;99.90;;;;;;5093440;28;20116;-79
2022/03/18 12:51:14;;;;;;;23.10;5.53;;;15.30;99.90;;;;;;5107806;27;20052;-79
2022/03/18 12:53:46;;;;;;;22.02;4.93;;;15.80;99.90;;;;;;5112122;27;20502;-79
2022/03/18 12:56:18;;;;;;;22.85;5.25;;;16.00;99.90;;;;;;5095683;27;20497;-78
2022/03/18 12:58:45;;;;;;;28.50;5.88;;;15.80;99.90;;;;;;5095215;28;20127;-82
2022/03/18 13:01:12;;;;;;;21.98;5.22;;;15.90;99.90;;;;;;5108140;27;20396;-80
2022/03/18 13:03:49;;;;;;;21.80;4.78;;;15.90;99.90;;;;;;5108545;27;20118;-79
2022/03/18 13:06:22;;;;;;;27.65;5.28;;;15.70;99.90;;;;;;5100140;28;20032;-78